createdAt,value
2019-05-14T00:01:36.969Z,50.00
2019-05-14T00:04:11.555Z,50.20
2019-05-14T00:06:44.515Z,50.10
2019-05-14T00:09:17.361Z,50.60
2019-05-14T00:11:51.284Z,49.80
2019-05-14T00:14:35.662Z,50.10
2019-05-14T00:16:58.990Z,50.10
2019-05-14T00:19:32.945Z,50.20
2019-05-14T00:22:05.756Z,50.40
2019-05-14T00:24:38.573Z,50.20
2019-05-14T00:27:11.739Z,49.90
2019-05-14T00:29:44.745Z,49.70
2019-05-14T00:32:17.711Z,50.00
2019-05-14T00:34:51.553Z,50.20
2019-05-14T00:37:24.626Z,50.50
2019-05-14T00:39:57.445Z,49.90
2019-05-14T00:42:31.909Z,50.20
2019-05-14T00:45:06.540Z,48.70
2019-05-14T00:47:41.575Z,48.70
2019-05-14T00:50:14.046Z,49.00
2019-05-14T00:52:46.829Z,48.60
2019-05-14T00:55:22.110Z,48.90
2019-05-14T00:57:55.691Z,49.40
2019-05-14T01:00:28.635Z,49.70
2019-05-14T01:03:02.194Z,50.70
2019-05-14T01:05:35.043Z,51.00
2019-05-14T01:08:07.827Z,50.70
2019-05-14T01:10:41.745Z,50.50
2019-05-14T01:13:14.714Z,50.40
2019-05-14T01:15:47.641Z,50.80
2019-05-14T01:18:21.962Z,51.20
2019-05-14T01:20:54.976Z,51.20
2019-05-14T01:23:27.760Z,51.50
2019-05-14T01:26:02.362Z,51.70
2019-05-14T01:28:35.329Z,52.00
2019-05-14T01:31:08.150Z,52.70
2019-05-14T01:33:41.189Z,52.90
2019-05-14T01:36:14.094Z,53.00
2019-05-14T01:38:47.040Z,53.60
2019-05-14T01:41:22.189Z,54.00
2019-05-14T01:43:54.608Z,53.30
2019-05-14T01:46:27.471Z,54.20
2019-05-14T01:49:01.514Z,53.90
2019-05-14T01:51:34.556Z,54.10
2019-05-14T01:54:07.327Z,53.00
2019-05-14T01:56:42.312Z,53.10
2019-05-14T01:59:14.926Z,53.70
2019-05-14T02:01:47.751Z,53.80
2019-05-14T02:04:22.114Z,54.80
2019-05-14T02:06:55.164Z,55.00
2019-05-14T02:09:27.974Z,55.10
2019-05-14T02:12:02.263Z,55.40
2019-05-14T02:14:35.402Z,55.00
2019-05-14T02:17:08.235Z,55.80
2019-05-14T02:19:42.591Z,55.90
2019-05-14T02:22:15.696Z,55.90
2019-05-14T02:24:48.467Z,56.10
2019-05-14T02:27:21.527Z,56.10
2019-05-14T02:29:55.458Z,56.10
2019-05-14T02:32:29.820Z,56.10
2019-05-14T02:35:02.912Z,55.90
2019-05-14T02:37:35.702Z,56.20
2019-05-14T02:40:09.841Z,56.10
2019-05-14T02:42:43.459Z,56.40
2019-05-14T02:45:19.506Z,56.00
2019-05-14T02:47:51.226Z,56.20
2019-05-14T02:50:24.023Z,56.50
2019-05-14T02:52:59.901Z,57.00
2019-05-14T02:55:32.888Z,57.70
2019-05-14T02:58:05.718Z,57.60
2019-05-14T03:00:40.800Z,56.90
2019-05-14T03:03:13.323Z,57.50
2019-05-14T03:05:49.246Z,56.80
2019-05-14T03:08:21.204Z,57.30
2019-05-14T03:10:54.104Z,57.50
2019-05-14T03:13:29.579Z,58.00
2019-05-14T03:16:20.996Z,57.60
2019-05-14T03:18:39.426Z,58.20
2019-05-14T03:21:11.096Z,59.20
2019-05-14T03:23:43.896Z,59.80
2019-05-14T03:26:19.631Z,60.30
2019-05-14T03:28:51.676Z,60.40
2019-05-14T03:31:24.481Z,60.80
2019-05-14T03:34:02.507Z,60.80
2019-05-14T03:36:34.437Z,61.10
2019-05-14T03:39:10.232Z,60.90
2019-05-14T03:41:41.445Z,60.90
2019-05-14T03:44:14.264Z,61.00
2019-05-14T03:46:54.681Z,61.10
2019-05-14T03:49:21.767Z,61.00
2019-05-14T03:51:55.677Z,61.60
2019-05-14T03:54:29.753Z,62.20
2019-05-14T03:57:03.006Z,61.80
2019-05-14T03:59:35.987Z,62.00
2019-05-14T04:02:10.757Z,62.20
2019-05-14T04:04:43.616Z,62.20
2019-05-14T04:07:19.545Z,62.30
2019-05-14T04:09:54.594Z,62.40
2019-05-14T04:12:30.222Z,63.40
2019-05-14T04:15:05.020Z,63.00
2019-05-14T04:17:42.343Z,63.20
2019-05-14T04:20:14.310Z,63.10
2019-05-14T04:22:51.128Z,62.30
2019-05-14T04:25:29.615Z,62.80
2019-05-14T04:28:04.666Z,62.10
2019-05-14T04:30:40.890Z,61.70
2019-05-14T04:33:19.077Z,61.60
2019-05-14T04:35:53.835Z,61.00
2019-05-14T04:38:30.001Z,59.60
2019-05-14T04:41:01.506Z,56.80
2019-05-14T04:43:34.306Z,53.00
2019-05-14T04:46:10.485Z,51.70
2019-05-14T04:48:43.860Z,51.60
2019-05-14T04:51:19.574Z,50.30
2019-05-14T04:53:51.469Z,50.90
2019-05-14T04:56:24.552Z,49.30
2019-05-14T04:58:59.606Z,50.20
2019-05-14T05:01:32.093Z,49.90
2019-05-14T05:04:05.021Z,50.00
2019-05-14T05:06:39.643Z,48.90
2019-05-14T05:09:12.551Z,49.80
2019-05-14T05:11:45.364Z,49.10
2019-05-14T05:14:19.161Z,49.70
2019-05-14T05:16:52.281Z,50.30
2019-05-14T05:19:25.101Z,49.00
2019-05-14T05:21:58.744Z,50.10
2019-05-14T05:24:31.815Z,49.60
2019-05-14T05:27:04.643Z,49.00
2019-05-14T05:29:39.223Z,50.80
2019-05-14T05:32:12.150Z,50.80
2019-05-14T05:34:48.136Z,51.20
2019-05-14T05:37:20.449Z,50.50
2019-05-14T05:39:53.281Z,50.90
2019-05-14T05:42:26.072Z,50.30
2019-05-14T05:44:58.968Z,50.70
2019-05-14T05:47:31.723Z,50.30
2019-05-14T05:50:05.432Z,49.30
2019-05-14T05:52:38.875Z,49.50
2019-05-14T05:55:12.268Z,50.20
2019-05-14T05:57:45.087Z,48.30
2019-05-14T06:00:33.567Z,49.50
2019-05-14T06:03:10.272Z,49.00
2019-05-14T06:05:41.307Z,47.50
2019-05-14T06:08:14.218Z,49.10
2019-05-14T06:10:48.938Z,47.60
2019-05-14T06:13:21.756Z,48.00
2019-05-14T06:15:54.552Z,48.70
2019-05-14T06:18:28.617Z,48.80
2019-05-14T06:21:01.666Z,47.00
2019-05-14T06:23:38.353Z,46.40
2019-05-14T06:26:11.699Z,47.30
2019-05-14T06:28:44.731Z,47.40
2019-05-14T06:31:19.174Z,47.50
2019-05-14T06:33:52.328Z,47.30
2019-05-14T06:36:25.150Z,47.50
2019-05-14T06:38:58.656Z,47.00
2019-05-14T06:41:31.587Z,45.80
2019-05-14T06:44:04.420Z,45.20
2019-05-14T06:46:39.140Z,41.40
2019-05-14T06:49:11.960Z,39.00
2019-05-14T06:51:44.773Z,39.20
2019-05-14T06:54:19.660Z,41.40
2019-05-14T06:56:52.347Z,38.40
2019-05-14T06:59:25.180Z,40.40
2019-05-14T07:01:58.186Z,40.40
2019-05-14T07:04:31.332Z,40.50
2019-05-14T07:07:04.152Z,40.50
2019-05-14T07:09:38.510Z,40.60
2019-05-14T07:12:11.559Z,39.20
2019-05-14T07:14:44.482Z,40.10
2019-05-14T07:17:18.362Z,41.20
2019-05-14T07:19:51.421Z,39.20
2019-05-14T07:22:24.373Z,39.70
2019-05-14T07:24:58.755Z,40.10
2019-05-14T07:27:32.216Z,39.30
2019-05-14T07:30:05.590Z,41.40
2019-05-14T07:32:39.415Z,40.40
2019-05-14T07:35:13.491Z,40.30
2019-05-14T07:37:48.704Z,42.10
2019-05-14T07:40:21.057Z,40.90
2019-05-14T07:42:53.896Z,41.60
2019-05-14T07:45:28.593Z,41.10
2019-05-14T07:48:01.445Z,41.20
2019-05-14T07:50:34.740Z,42.50
2019-05-14T07:53:09.029Z,41.20
2019-05-14T07:55:42.030Z,40.70
2019-05-14T07:58:14.838Z,40.50
2019-05-14T08:00:49.177Z,42.60
2019-05-14T08:03:22.184Z,41.80
2019-05-14T08:05:55.016Z,41.60
2019-05-14T08:08:29.321Z,41.00
2019-05-14T08:11:03.119Z,41.10
2019-05-14T08:13:35.940Z,40.70
2019-05-14T08:16:09.107Z,39.40
2019-05-14T08:18:42.181Z,39.70
2019-05-14T08:21:15.022Z,41.20
2019-05-14T08:23:48.225Z,41.20
2019-05-14T08:26:21.250Z,40.70
2019-05-14T08:28:54.081Z,41.30
2019-05-14T08:31:29.070Z,43.00
2019-05-14T08:34:04.667Z,42.40
2019-05-14T08:36:37.990Z,43.40
2019-05-14T08:39:11.043Z,40.80
2019-05-14T08:41:58.575Z,40.10
2019-05-14T08:44:19.956Z,39.90
2019-05-14T08:46:52.868Z,42.30
2019-05-14T08:49:38.906Z,42.30
2019-05-14T08:52:01.431Z,40.90
2019-05-14T08:54:34.269Z,41.00
2019-05-14T08:57:09.855Z,43.50
2019-05-14T08:59:41.864Z,40.20
2019-05-14T09:02:14.672Z,41.70
2019-05-14T09:04:54.305Z,41.50
2019-05-14T09:07:22.356Z,41.30
2019-05-14T09:09:55.186Z,40.20
2019-05-14T09:12:28.201Z,41.20
2019-05-14T09:15:01.385Z,39.10
2019-05-14T09:17:34.420Z,38.10
2019-05-14T09:20:11.007Z,37.60
2019-05-14T09:22:42.832Z,38.20
2019-05-14T09:25:15.882Z,38.10
2019-05-14T09:27:49.496Z,39.80
2019-05-14T09:30:28.958Z,34.90
2019-05-14T09:33:01.773Z,35.90
2019-05-14T09:35:34.672Z,36.70
2019-05-14T09:38:08.708Z,39.60
2019-05-14T09:40:41.900Z,36.70
2019-05-14T09:43:14.880Z,38.00
2019-05-14T09:45:48.214Z,39.20
2019-05-14T09:48:22.241Z,36.10
2019-05-14T09:50:55.082Z,38.20
2019-05-14T09:53:28.826Z,37.00
2019-05-14T09:56:01.905Z,37.10
2019-05-14T09:58:34.744Z,36.00
2019-05-14T10:01:08.586Z,37.80
2019-05-14T10:03:41.699Z,35.50
2019-05-14T10:06:14.588Z,35.40
2019-05-14T10:08:48.557Z,34.60
2019-05-14T10:11:21.642Z,35.10
2019-05-14T10:13:54.457Z,36.40
2019-05-14T10:16:29.163Z,34.40
2019-05-14T10:19:02.017Z,33.60
2019-05-14T10:21:35.924Z,35.40
2019-05-14T10:24:09.287Z,34.00
2019-05-14T10:26:42.489Z,35.00
2019-05-14T10:29:15.315Z,34.50
2019-05-14T10:31:48.690Z,35.60
2019-05-14T10:34:21.560Z,36.30
2019-05-14T10:36:54.433Z,34.40
2019-05-14T10:39:29.797Z,34.70
2019-05-14T10:42:02.346Z,35.50
2019-05-14T10:44:35.160Z,33.30
2019-05-14T10:47:09.183Z,36.90
2019-05-14T10:49:42.440Z,33.80
2019-05-14T10:52:15.293Z,36.60
2019-05-14T10:54:55.760Z,35.50
2019-05-14T10:57:23.003Z,35.10
2019-05-14T10:59:55.814Z,36.50
2019-05-14T11:02:29.260Z,36.30
2019-05-14T11:05:03.348Z,35.90
2019-05-14T11:07:41.398Z,36.80
2019-05-14T11:10:11.132Z,35.50
2019-05-14T11:12:43.969Z,35.60
2019-05-14T11:15:19.143Z,36.20
2019-05-14T11:17:52.055Z,32.80
2019-05-14T11:20:24.964Z,37.40
2019-05-14T11:22:58.449Z,38.40
2019-05-14T11:25:31.409Z,35.70
2019-05-14T11:28:04.286Z,35.70
2019-05-14T11:30:39.169Z,35.30
2019-05-14T11:33:11.835Z,35.30
2019-05-14T11:35:44.679Z,34.00
2019-05-14T11:38:31.727Z,35.70
2019-05-14T11:40:52.248Z,35.60
2019-05-14T11:43:25.071Z,35.80
2019-05-14T11:45:59.382Z,35.00
2019-05-14T11:48:32.410Z,36.10
2019-05-14T11:51:05.234Z,36.80
2019-05-14T11:53:38.652Z,34.80
2019-05-14T11:56:11.661Z,37.20
2019-05-14T11:58:44.513Z,33.90
2019-05-14T12:01:18.908Z,34.40
2019-05-14T12:03:52.068Z,34.10
2019-05-14T12:06:24.856Z,34.40
2019-05-14T12:08:58.252Z,32.80
2019-05-14T12:11:32.306Z,35.60
2019-05-14T12:14:05.124Z,34.80
2019-05-14T12:16:40.138Z,34.20
2019-05-14T12:19:12.792Z,32.00
2019-05-14T12:22:02.918Z,34.80
2019-05-14T12:24:20.457Z,32.10
2019-05-14T12:26:53.301Z,37.20
2019-05-14T12:29:28.924Z,36.60
2019-05-14T12:32:00.889Z,37.10
2019-05-14T12:34:33.813Z,33.00
2019-05-14T12:37:08.966Z,35.70
2019-05-14T12:39:41.468Z,35.70
2019-05-14T12:42:14.385Z,36.20
2019-05-14T12:44:47.231Z,36.60
2019-05-14T12:47:20.057Z,38.00
2019-05-14T12:49:52.889Z,35.10
2019-05-14T12:52:26.282Z,38.30
2019-05-14T12:54:59.825Z,35.40
2019-05-14T12:57:33.122Z,35.60
2019-05-14T13:00:08.985Z,36.40
2019-05-14T13:02:42.918Z,36.40
2019-05-14T13:05:18.128Z,36.30
2019-05-14T13:07:51.244Z,35.90
2019-05-14T13:10:24.352Z,33.50
2019-05-14T13:12:58.845Z,35.30
2019-05-14T13:15:31.752Z,34.50
2019-05-14T13:18:04.659Z,33.50
2019-05-14T13:20:38.880Z,35.20
2019-05-14T13:23:12.915Z,35.60
2019-05-14T13:25:45.886Z,32.50
2019-05-14T13:28:19.484Z,34.60
2019-05-14T13:30:52.473Z,34.10
2019-05-14T13:33:25.504Z,35.10
2019-05-14T13:35:59.401Z,34.30
2019-05-14T13:38:32.493Z,32.50
2019-05-14T13:41:05.342Z,35.40
2019-05-14T13:43:38.979Z,34.80
2019-05-14T13:46:15.202Z,34.20
2019-05-14T13:48:49.920Z,34.00
2019-05-14T13:51:22.358Z,32.50
2019-05-14T13:53:55.274Z,36.10
2019-05-14T13:56:28.465Z,35.50
2019-05-14T13:59:01.348Z,34.50
2019-05-14T14:01:34.157Z,35.20
2019-05-14T14:04:14.142Z,33.00
2019-05-14T14:06:41.837Z,35.20
2019-05-14T14:09:14.662Z,33.80
2019-05-14T14:11:48.275Z,32.10
2019-05-14T14:14:21.242Z,30.50
2019-05-14T14:16:54.094Z,33.90
2019-05-14T14:19:28.203Z,32.50
2019-05-14T14:22:01.490Z,33.70
2019-05-14T14:24:34.319Z,33.10
2019-05-14T14:27:09.133Z,33.60
2019-05-14T14:29:41.945Z,31.00
2019-05-14T14:32:14.927Z,30.50
2019-05-14T14:34:47.884Z,33.20
2019-05-14T14:37:20.735Z,31.20
2019-05-14T14:39:53.629Z,31.90
2019-05-14T14:42:29.798Z,31.40
2019-05-14T14:45:03.287Z,32.50
2019-05-14T14:47:36.244Z,33.90
2019-05-14T14:50:09.308Z,33.80
2019-05-14T14:52:42.215Z,32.50
2019-05-14T14:55:15.209Z,32.50
2019-05-14T14:57:54.145Z,32.30
2019-05-14T15:00:23.046Z,32.70
2019-05-14T15:02:59.450Z,32.60
2019-05-14T15:05:30.759Z,32.60
2019-05-14T15:08:03.616Z,30.90
2019-05-14T15:10:39.285Z,32.00
2019-05-14T15:13:11.425Z,30.90
2019-05-14T15:15:44.257Z,30.30
2019-05-14T15:18:18.800Z,31.10
2019-05-14T15:20:51.901Z,30.60
2019-05-14T15:23:24.738Z,31.70
2019-05-14T15:25:58.930Z,30.70
2019-05-14T15:28:31.968Z,29.90
2019-05-14T15:31:04.791Z,30.70
2019-05-14T15:33:37.785Z,30.50
2019-05-14T15:36:10.789Z,29.10
2019-05-14T15:38:43.816Z,35.30
2019-05-14T15:41:19.234Z,34.00
2019-05-14T15:43:51.389Z,31.20
2019-05-14T15:46:24.246Z,29.40
2019-05-14T15:48:59.547Z,31.60
2019-05-14T15:51:31.864Z,32.20
2019-05-14T15:54:21.065Z,31.70
2019-05-14T15:56:39.620Z,30.90
2019-05-14T15:59:12.534Z,31.40
2019-05-14T16:01:45.414Z,31.00
2019-05-14T16:04:20.662Z,30.90
2019-05-14T16:06:53.011Z,32.00
2019-05-14T16:09:28.694Z,31.60
2019-05-14T16:12:01.776Z,33.90
2019-05-14T16:14:34.673Z,32.20
2019-05-14T16:17:11.228Z,34.70
2019-05-14T16:19:42.293Z,34.80
2019-05-14T16:22:15.223Z,35.20
2019-05-14T16:24:56.489Z,32.10
2019-05-14T16:27:22.838Z,32.60
2019-05-14T16:29:58.463Z,34.40
2019-05-14T16:32:30.498Z,33.40
2019-05-14T16:35:04.258Z,35.10
2019-05-14T16:37:39.250Z,33.20
2019-05-14T16:40:12.294Z,33.80
2019-05-14T16:42:45.153Z,32.80
2019-05-14T16:45:18.709Z,32.90
2019-05-14T16:47:51.673Z,33.40
2019-05-14T16:50:24.570Z,33.60
2019-05-14T16:52:58.900Z,34.90
2019-05-14T16:55:31.973Z,35.90
2019-05-14T16:58:05.840Z,35.10
2019-05-14T17:00:38.710Z,34.90
2019-05-14T17:03:11.580Z,34.80
2019-05-14T17:05:44.513Z,35.30
2019-05-14T17:08:18.995Z,33.50
2019-05-14T17:10:52.395Z,34.30
2019-05-14T17:13:25.294Z,33.40
2019-05-14T17:15:58.887Z,32.40
2019-05-14T17:18:31.944Z,35.00
2019-05-14T17:21:04.849Z,32.20
2019-05-14T17:23:39.327Z,32.50
2019-05-14T17:26:12.350Z,34.70
2019-05-14T17:28:45.211Z,34.30
2019-05-14T17:31:19.112Z,35.10
2019-05-14T17:33:52.282Z,34.80
2019-05-14T17:36:25.153Z,34.60
2019-05-14T17:38:58.634Z,34.30
2019-05-14T17:41:31.588Z,34.80
2019-05-14T17:44:04.882Z,34.80
2019-05-14T17:46:39.440Z,34.40
2019-05-14T17:49:13.030Z,35.60
2019-05-14T17:51:48.338Z,35.00
2019-05-14T17:54:22.284Z,35.60
2019-05-14T17:56:55.260Z,37.30
2019-05-14T17:59:29.810Z,37.20
2019-05-14T18:02:02.873Z,34.20
2019-05-14T18:04:35.861Z,34.50
2019-05-14T18:07:08.804Z,33.30
2019-05-14T18:09:41.814Z,34.70
2019-05-14T18:12:14.730Z,34.70
2019-05-14T18:14:48.689Z,33.90
2019-05-14T18:17:21.518Z,34.10
2019-05-14T18:19:54.349Z,34.80
2019-05-14T18:22:28.626Z,34.90
2019-05-14T18:25:01.992Z,35.70
2019-05-14T18:27:35.261Z,36.30
2019-05-14T18:30:09.414Z,37.10
2019-05-14T18:32:42.396Z,37.20
2019-05-14T18:35:18.785Z,37.70
2019-05-14T18:37:51.909Z,37.40
2019-05-14T18:40:24.937Z,38.10
2019-05-14T18:42:59.173Z,38.90
2019-05-14T18:45:33.344Z,38.20
2019-05-14T18:48:08.401Z,38.60
2019-05-14T18:50:40.999Z,39.40
2019-05-14T18:53:13.874Z,39.30
2019-05-14T18:55:48.935Z,39.90
2019-05-14T18:58:23.099Z,41.20
2019-05-14T19:00:58.449Z,41.30
2019-05-14T19:03:31.306Z,41.50
2019-05-14T19:06:04.268Z,41.60
2019-05-14T19:08:39.250Z,42.10
2019-05-14T19:11:11.957Z,42.50
2019-05-14T19:13:45.338Z,43.20
2019-05-14T19:16:18.224Z,43.90
2019-05-14T19:18:51.096Z,45.10
2019-05-14T19:21:24.031Z,44.90
2019-05-14T19:23:57.015Z,45.50
2019-05-14T19:26:36.526Z,45.20
2019-05-14T19:29:05.038Z,45.10
2019-05-14T19:31:38.650Z,45.20
2019-05-14T19:34:11.805Z,46.00
2019-05-14T19:36:44.701Z,47.90
2019-05-14T19:39:18.776Z,48.40
2019-05-14T19:41:52.553Z,48.00
2019-05-14T19:44:25.469Z,48.30
2019-05-14T19:46:59.210Z,48.60
2019-05-14T19:49:32.227Z,48.70
2019-05-14T19:52:05.102Z,49.70
2019-05-14T19:54:38.551Z,50.50
2019-05-14T19:57:11.569Z,51.70
2019-05-14T19:59:45.552Z,52.50
2019-05-14T20:02:18.562Z,51.90
2019-05-14T20:04:51.519Z,51.90
2019-05-14T20:07:24.418Z,51.70
2019-05-14T20:09:58.769Z,52.00
2019-05-14T20:12:31.797Z,52.40
2019-05-14T20:15:05.687Z,53.20
2019-05-14T20:17:38.728Z,53.10
2019-05-14T20:20:11.879Z,52.40
2019-05-14T20:22:44.689Z,52.10
2019-05-14T20:25:17.562Z,52.00
2019-05-14T20:27:50.394Z,52.90
2019-05-14T20:30:23.275Z,52.20
2019-05-14T20:32:56.061Z,52.40
2019-05-14T20:35:34.656Z,52.00
2019-05-14T20:38:03.590Z,53.00
2019-05-14T20:40:38.027Z,52.90
2019-05-14T20:43:10.962Z,52.90
2019-05-14T20:45:43.800Z,53.00
2019-05-14T20:48:18.883Z,52.70
2019-05-14T20:50:51.584Z,52.60
2019-05-14T20:53:24.445Z,53.80
2019-05-14T20:55:58.853Z,54.40
2019-05-14T20:58:31.820Z,55.00
2019-05-14T21:01:04.650Z,56.00
2019-05-14T21:03:37.456Z,56.30
2019-05-14T21:06:10.231Z,56.80
2019-05-14T21:08:43.027Z,57.40
2019-05-14T21:11:15.899Z,57.40
2019-05-14T21:13:50.429Z,57.40
2019-05-14T21:16:23.404Z,57.40
2019-05-14T21:18:56.242Z,57.00
2019-05-14T21:21:29.086Z,56.90
2019-05-14T21:24:01.969Z,56.60
2019-05-14T21:26:34.796Z,56.20
2019-05-14T21:29:08.000Z,56.50
2019-05-14T21:31:40.893Z,56.70
2019-05-14T21:34:13.708Z,57.40
2019-05-14T21:36:47.105Z,59.00
2019-05-14T21:39:19.933Z,58.00
2019-05-14T21:41:52.778Z,58.40
2019-05-14T21:44:28.284Z,58.70
2019-05-14T21:47:00.916Z,58.50
2019-05-14T21:49:33.709Z,58.70
2019-05-14T21:52:08.896Z,58.70
2019-05-14T21:54:41.289Z,58.00
2019-05-14T21:57:14.128Z,58.30
2019-05-14T21:59:48.030Z,57.70
2019-05-14T22:02:27.013Z,57.60
2019-05-14T22:04:58.252Z,57.60
2019-05-14T22:07:30.643Z,57.40
2019-05-14T22:10:04.884Z,57.50
2019-05-14T22:12:39.413Z,57.90
2019-05-14T22:15:12.832Z,58.30
2019-05-14T22:17:45.659Z,58.70
2019-05-14T22:20:19.206Z,59.00
2019-05-14T22:22:52.283Z,59.50
2019-05-14T22:25:28.364Z,60.00
2019-05-14T22:28:11.570Z,60.20
2019-05-14T22:30:35.798Z,60.80
2019-05-14T22:33:08.853Z,60.50
2019-05-14T22:35:41.701Z,60.50
2019-05-14T22:38:14.543Z,60.20
2019-05-14T22:40:48.287Z,60.90
2019-05-14T22:43:21.233Z,59.80
2019-05-14T22:45:54.118Z,59.60
2019-05-14T22:48:26.948Z,59.60
2019-05-14T22:50:59.772Z,59.60
2019-05-14T22:53:32.695Z,60.30
2019-05-14T22:56:05.498Z,59.70
2019-05-14T22:58:38.552Z,59.90
2019-05-14T23:01:14.687Z,60.40
2019-05-14T23:03:49.068Z,60.50
2019-05-14T23:06:21.620Z,60.50
2019-05-14T23:08:54.508Z,60.60
2019-05-14T23:11:28.888Z,60.80
2019-05-14T23:14:03.336Z,61.50
2019-05-14T23:16:41.244Z,61.90
2019-05-14T23:19:11.905Z,62.20
2019-05-14T23:21:44.751Z,62.70
2019-05-14T23:24:18.906Z,63.00
2019-05-14T23:26:51.900Z,62.80
2019-05-14T23:29:24.789Z,62.70
2019-05-14T23:32:08.140Z,62.10
2019-05-14T23:34:41.513Z,61.70
2019-05-14T23:37:14.447Z,61.60
2019-05-14T23:39:49.083Z,61.60
2019-05-14T23:42:21.973Z,61.70
2019-05-14T23:44:54.816Z,61.30
2019-05-14T23:47:28.958Z,61.20
2019-05-14T23:50:01.992Z,61.70
2019-05-14T23:52:34.813Z,61.50
2019-05-14T23:55:08.542Z,61.40
2019-05-14T23:57:42.890Z,62.20
